createdAt,value
2018-12-10T00:01:57.744Z,1.90
2018-12-10T00:04:25.174Z,1.97
2018-12-10T00:06:52.689Z,2.37
2018-12-10T00:09:20.124Z,1.83
2018-12-10T00:11:47.549Z,1.93
2018-12-10T00:14:15.060Z,3.23
2018-12-10T00:16:42.488Z,2.13
2018-12-10T00:19:09.976Z,2.30
2018-12-10T00:21:37.434Z,2.37
2018-12-10T00:24:04.860Z,2.03
2018-12-10T00:26:32.282Z,2.90
2018-12-10T00:28:59.741Z,2.50
2018-12-10T00:31:27.256Z,2.40
2018-12-10T00:33:54.710Z,2.50
2018-12-10T00:36:22.169Z,2.73
2018-12-10T00:38:49.616Z,2.90
2018-12-10T00:41:17.089Z,2.70
2018-12-10T00:43:44.541Z,2.63
2018-12-10T00:46:11.961Z,3.00
2018-12-10T00:48:39.443Z,2.47
2018-12-10T00:51:07.008Z,2.70
2018-12-10T00:53:34.472Z,2.30
2018-12-10T00:56:01.893Z,2.60
2018-12-10T00:58:29.476Z,2.53
2018-12-10T01:00:56.949Z,2.87
2018-12-10T01:03:24.376Z,3.10
2018-12-10T01:05:51.808Z,2.50
2018-12-10T01:08:19.300Z,2.83
2018-12-10T01:10:46.752Z,3.00
2018-12-10T01:13:14.181Z,3.47
2018-12-10T01:15:41.611Z,3.23
2018-12-10T01:18:09.117Z,2.70
2018-12-10T01:20:36.548Z,2.50
2018-12-10T01:23:04.124Z,2.70
2018-12-10T01:25:31.687Z,3.07
2018-12-10T01:27:59.150Z,3.30
2018-12-10T01:30:26.701Z,2.70
2018-12-10T01:32:54.265Z,2.73
2018-12-10T01:35:21.698Z,2.87
2018-12-10T01:37:49.193Z,3.53
2018-12-10T01:40:16.632Z,2.80
2018-12-10T01:42:44.084Z,3.00
2018-12-10T01:45:11.650Z,2.73
2018-12-10T01:47:39.079Z,2.93
2018-12-10T01:50:06.559Z,3.60
2018-12-10T01:52:34.020Z,3.47
2018-12-10T01:55:01.484Z,3.40
2018-12-10T01:57:29.845Z,2.83
2018-12-10T01:59:57.279Z,3.13
2018-12-10T02:02:24.765Z,3.23
2018-12-10T02:04:52.191Z,3.93
2018-12-10T02:07:19.628Z,3.20
2018-12-10T02:09:47.132Z,3.50
2018-12-10T02:12:14.696Z,4.30
2018-12-10T02:14:42.129Z,3.70
2018-12-10T02:17:09.580Z,3.03
2018-12-10T02:19:37.017Z,3.67
2018-12-10T02:22:04.520Z,3.93
2018-12-10T02:24:31.985Z,3.90
2018-12-10T02:26:59.497Z,3.70
2018-12-10T02:29:26.993Z,3.47
2018-12-10T02:31:54.824Z,4.00
2018-12-10T02:34:22.314Z,4.20
2018-12-10T02:36:49.874Z,3.50
2018-12-10T02:39:17.526Z,3.93
2018-12-10T02:41:44.957Z,3.67
2018-12-10T02:44:12.448Z,3.33
2018-12-10T02:46:40.007Z,3.63
2018-12-10T02:49:07.461Z,3.70
2018-12-10T02:51:34.895Z,3.50
2018-12-10T02:54:02.373Z,3.57
2018-12-10T02:56:29.941Z,3.60
2018-12-10T02:58:57.497Z,3.03
2018-12-10T03:01:24.950Z,3.00
2018-12-10T03:03:52.413Z,2.90
2018-12-10T03:06:19.868Z,3.30
2018-12-10T03:08:47.435Z,3.33
2018-12-10T03:11:14.884Z,3.23
2018-12-10T03:13:42.317Z,3.30
2018-12-10T03:16:09.752Z,3.33
2018-12-10T03:18:37.251Z,2.87
2018-12-10T03:21:04.686Z,3.17
2018-12-10T03:23:32.123Z,2.90
2018-12-10T03:25:59.551Z,2.60
2018-12-10T03:28:27.077Z,2.87
2018-12-10T03:30:54.534Z,2.30
2018-12-10T03:33:22.097Z,2.17
2018-12-10T03:35:49.685Z,2.50
2018-12-10T03:38:17.196Z,2.03
2018-12-10T03:40:44.672Z,2.00
2018-12-10T03:43:12.255Z,2.57
2018-12-10T03:45:39.773Z,2.07
2018-12-10T03:48:07.236Z,2.37
2018-12-10T03:50:34.703Z,2.30
2018-12-10T03:53:02.128Z,2.40
2018-12-10T03:55:29.568Z,2.40
2018-12-10T03:57:57.009Z,2.57
2018-12-10T04:00:24.500Z,2.63
2018-12-10T04:02:52.066Z,2.50
2018-12-10T04:05:19.645Z,2.30
2018-12-10T04:07:47.097Z,2.30
2018-12-10T04:10:14.553Z,2.50
2018-12-10T04:12:42.018Z,2.10
2018-12-10T04:15:09.555Z,2.50
2018-12-10T04:17:37.012Z,2.20
2018-12-10T04:20:04.611Z,2.20
2018-12-10T04:22:32.060Z,2.40
2018-12-10T04:24:59.592Z,1.87
2018-12-10T04:27:27.058Z,1.90
2018-12-10T04:29:54.604Z,2.10
2018-12-10T04:32:22.373Z,2.30
2018-12-10T04:34:49.835Z,2.03
2018-12-10T04:37:17.262Z,2.10
2018-12-10T04:39:44.726Z,2.33
2018-12-10T04:42:12.197Z,2.10
2018-12-10T04:44:39.654Z,2.70
2018-12-10T04:47:07.113Z,2.10
2018-12-10T04:49:34.717Z,1.97
2018-12-10T04:52:02.156Z,2.13
2018-12-10T04:54:29.681Z,2.10
2018-12-10T04:56:57.146Z,1.90
2018-12-10T04:59:24.668Z,2.30
2018-12-10T05:01:52.148Z,2.63
2018-12-10T05:04:19.610Z,2.17
2018-12-10T05:06:47.041Z,2.10
2018-12-10T05:09:14.512Z,2.37
2018-12-10T05:11:41.985Z,3.10
2018-12-10T05:14:09.433Z,2.73
2018-12-10T05:16:36.896Z,2.37
2018-12-10T05:19:04.454Z,3.00
2018-12-10T05:21:31.932Z,2.80
2018-12-10T05:23:59.426Z,2.27
2018-12-10T05:26:26.886Z,2.40
2018-12-10T05:28:54.545Z,2.60
2018-12-10T05:31:22.044Z,3.25
2018-12-10T05:33:49.472Z,2.40
2018-12-10T05:36:16.966Z,2.40
2018-12-10T05:38:44.417Z,2.63
2018-12-10T05:41:11.874Z,2.67
2018-12-10T05:43:39.941Z,2.80
2018-12-10T05:46:07.402Z,2.37
2018-12-10T05:48:34.840Z,2.70
2018-12-10T05:51:02.296Z,2.67
2018-12-10T05:53:29.770Z,2.40
2018-12-10T05:55:57.298Z,2.37
2018-12-10T05:58:24.749Z,2.27
2018-12-10T06:00:52.238Z,2.23
2018-12-10T06:03:20.128Z,2.30
2018-12-10T06:05:47.697Z,2.63
2018-12-10T06:08:15.125Z,2.50
2018-12-10T06:10:42.578Z,2.60
2018-12-10T06:13:10.025Z,2.57
2018-12-10T06:15:37.493Z,2.87
2018-12-10T06:18:04.970Z,4.60
2018-12-10T06:20:32.501Z,2.70
2018-12-10T06:23:00.061Z,2.70
2018-12-10T06:25:27.518Z,2.90
2018-12-10T06:27:54.965Z,3.10
2018-12-10T06:30:22.396Z,2.93
2018-12-10T06:32:49.984Z,2.70
2018-12-10T06:35:17.513Z,3.57
2018-12-10T06:37:45.140Z,2.57
2018-12-10T06:40:12.669Z,3.27
2018-12-10T06:42:40.121Z,2.37
2018-12-10T06:45:07.788Z,3.27
2018-12-10T06:47:35.247Z,2.87
2018-12-10T06:50:03.141Z,2.67
2018-12-10T06:52:30.577Z,2.37
2018-12-10T06:54:58.009Z,2.13
2018-12-10T06:57:25.474Z,2.17
2018-12-10T06:59:52.933Z,2.43
2018-12-10T07:02:20.369Z,3.20
2018-12-10T07:04:47.842Z,3.50
2018-12-10T07:07:15.300Z,3.57
2018-12-10T07:09:42.737Z,2.53
2018-12-10T07:12:10.201Z,2.93
2018-12-10T07:14:37.685Z,3.63
2018-12-10T07:17:05.381Z,3.33
2018-12-10T07:19:32.910Z,3.20
2018-12-10T07:22:00.348Z,2.80
2018-12-10T07:24:27.813Z,2.90
2018-12-10T07:26:55.260Z,2.80
2018-12-10T07:29:22.737Z,3.20
2018-12-10T07:31:50.177Z,3.10
2018-12-10T07:34:17.616Z,3.03
2018-12-10T07:36:45.059Z,2.57
2018-12-10T07:39:12.560Z,3.73
2018-12-10T07:41:40.013Z,3.10
2018-12-10T07:44:07.573Z,2.50
2018-12-10T07:46:35.012Z,2.93
2018-12-10T07:49:02.508Z,3.10
2018-12-10T07:51:30.041Z,3.27
2018-12-10T07:53:57.501Z,3.17
2018-12-10T07:56:29.003Z,2.47
2018-12-10T07:58:54.480Z,2.70
2018-12-10T08:01:22.021Z,2.80
2018-12-10T08:03:49.472Z,2.93
2018-12-10T08:06:16.928Z,2.63
2018-12-10T08:08:44.365Z,2.90
2018-12-10T08:11:11.815Z,2.20
2018-12-10T08:13:39.301Z,2.70
2018-12-10T08:16:06.765Z,2.90
2018-12-10T08:18:34.312Z,2.60
2018-12-10T08:21:02.657Z,2.83
2018-12-10T08:23:30.400Z,2.60
2018-12-10T08:25:58.117Z,2.60
2018-12-10T08:28:25.677Z,2.73
2018-12-10T08:30:53.232Z,2.73
2018-12-10T08:33:20.710Z,2.70
2018-12-10T08:35:48.352Z,2.37
2018-12-10T08:38:15.810Z,2.07
2018-12-10T08:40:43.264Z,2.70
2018-12-10T08:43:10.725Z,2.63
2018-12-10T08:45:38.207Z,2.63
2018-12-10T08:48:05.726Z,3.00
2018-12-10T08:50:33.294Z,2.60
2018-12-10T08:53:00.730Z,2.63
2018-12-10T08:55:28.225Z,2.37
2018-12-10T08:57:55.669Z,2.90
2018-12-10T09:00:23.168Z,2.70
2018-12-10T09:02:50.672Z,2.70
2018-12-10T09:05:18.237Z,2.47
2018-12-10T09:07:45.697Z,2.13
2018-12-10T09:10:13.353Z,2.73
2018-12-10T09:12:47.013Z,2.20
2018-12-10T09:15:10.316Z,2.77
2018-12-10T09:17:37.879Z,2.50
2018-12-10T09:20:05.747Z,2.33
2018-12-10T09:22:33.302Z,1.90
2018-12-10T09:25:00.774Z,2.07
2018-12-10T09:27:28.353Z,2.23
2018-12-10T09:29:55.877Z,1.67
2018-12-10T09:32:23.445Z,2.03
2018-12-10T09:34:50.955Z,2.47
2018-12-10T09:37:18.450Z,2.00
2018-12-10T09:39:45.969Z,2.03
2018-12-10T09:42:13.464Z,3.07
2018-12-10T09:44:41.016Z,2.10
2018-12-10T09:47:08.481Z,1.93
2018-12-10T09:49:37.321Z,2.20
2018-12-10T09:52:04.816Z,1.70
2018-12-10T09:54:32.382Z,2.00
2018-12-10T09:56:59.819Z,2.63
2018-12-10T09:59:27.257Z,1.60
2018-12-10T10:01:54.757Z,1.73
2018-12-10T10:04:22.208Z,2.40
2018-12-10T10:06:49.673Z,2.03
2018-12-10T10:09:17.114Z,1.10
2018-12-10T10:11:44.581Z,1.40
2018-12-10T10:14:12.036Z,1.23
2018-12-10T10:16:39.597Z,1.50
2018-12-10T10:19:07.153Z,0.87
2018-12-10T10:21:34.622Z,1.10
2018-12-10T10:24:02.065Z,0.73
2018-12-10T10:26:29.497Z,1.00
2018-12-10T10:28:56.937Z,1.27
2018-12-10T10:31:24.361Z,1.03
2018-12-10T10:33:51.891Z,1.10
2018-12-10T10:36:19.336Z,1.20
2018-12-10T10:38:47.023Z,1.90
2018-12-10T10:41:14.565Z,1.50
2018-12-10T10:43:42.124Z,1.00
2018-12-10T10:46:09.676Z,1.40
2018-12-10T10:48:37.150Z,1.60
2018-12-10T10:51:04.598Z,1.80
2018-12-10T10:53:32.104Z,1.40
2018-12-10T10:55:59.608Z,1.63
2018-12-10T10:58:27.169Z,1.87
2018-12-10T11:01:00.236Z,1.40
2018-12-10T11:03:33.473Z,1.50
2018-12-10T11:06:01.007Z,1.73
2018-12-10T11:08:28.432Z,1.57
2018-12-10T11:10:55.930Z,2.00
2018-12-10T11:13:23.362Z,1.40
2018-12-10T11:15:50.825Z,1.50
2018-12-10T11:18:18.298Z,1.40
2018-12-10T11:20:45.849Z,1.60
2018-12-10T11:23:13.306Z,2.00
2018-12-10T11:25:40.865Z,1.93
2018-12-10T11:28:08.322Z,1.87
2018-12-10T11:30:35.769Z,1.50
2018-12-10T11:33:03.253Z,1.50
2018-12-10T11:35:30.784Z,1.70
2018-12-10T11:37:58.250Z,2.00
2018-12-10T11:40:25.805Z,1.83
2018-12-10T11:42:53.369Z,1.60
2018-12-10T11:45:20.930Z,2.40
2018-12-10T11:47:48.457Z,1.50
2018-12-10T11:50:16.044Z,1.30
2018-12-10T11:52:43.805Z,1.80
2018-12-10T11:55:11.276Z,1.20
2018-12-10T11:57:38.816Z,1.13
2018-12-10T12:00:08.954Z,1.33
2018-12-10T12:02:36.497Z,1.73
2018-12-10T12:05:04.977Z,1.20
2018-12-10T12:07:32.541Z,1.53
2018-12-10T12:10:00.000Z,1.17
2018-12-10T12:12:27.452Z,1.40
2018-12-10T12:14:54.980Z,1.50
2018-12-10T12:17:22.472Z,1.30
2018-12-10T12:19:49.932Z,1.43
2018-12-10T12:22:17.477Z,1.27
2018-12-10T12:24:44.935Z,1.10
2018-12-10T12:27:12.502Z,1.20
2018-12-10T12:29:39.998Z,1.20
2018-12-10T12:32:07.504Z,1.13
2018-12-10T12:34:34.990Z,1.13
2018-12-10T12:37:02.428Z,1.00
2018-12-10T12:39:29.885Z,1.30
2018-12-10T12:41:57.437Z,1.40
2018-12-10T12:44:24.998Z,1.00
2018-12-10T12:46:52.764Z,1.13
2018-12-10T12:49:20.194Z,1.47
2018-12-10T12:51:47.990Z,1.60
2018-12-10T12:54:15.712Z,1.50
2018-12-10T12:56:43.197Z,1.73
2018-12-10T12:59:10.669Z,2.33
2018-12-10T13:01:38.112Z,1.37
2018-12-10T13:04:05.579Z,1.93
2018-12-10T13:06:33.129Z,1.43
2018-12-10T13:09:00.593Z,2.43
2018-12-10T13:11:28.040Z,1.50
2018-12-10T13:13:55.501Z,1.67
2018-12-10T13:16:23.057Z,2.27
2018-12-10T13:18:50.504Z,1.80
2018-12-10T13:21:17.972Z,2.80
2018-12-10T13:23:45.430Z,1.97
2018-12-10T13:26:12.980Z,1.80
2018-12-10T13:28:40.437Z,1.80
2018-12-10T13:31:07.972Z,1.63
2018-12-10T13:33:35.500Z,1.77
2018-12-10T13:36:04.119Z,1.77
2018-12-10T13:38:36.723Z,2.07
2018-12-10T13:41:01.068Z,1.93
2018-12-10T13:43:28.606Z,2.30
2018-12-10T13:45:56.077Z,1.97
2018-12-10T13:48:23.616Z,1.80
2018-12-10T13:50:51.050Z,2.07
2018-12-10T13:53:18.536Z,1.90
2018-12-10T13:55:45.969Z,2.40
2018-12-10T13:58:13.432Z,2.53
2018-12-10T14:00:41.009Z,2.50
2018-12-10T14:03:08.472Z,2.30
2018-12-10T14:05:35.905Z,2.40
2018-12-10T14:08:03.476Z,2.47
2018-12-10T14:10:30.910Z,2.47
2018-12-10T14:12:58.383Z,2.30
2018-12-10T14:15:25.933Z,2.83
2018-12-10T14:17:53.407Z,2.70
2018-12-10T14:20:20.873Z,3.20
2018-12-10T14:22:48.961Z,2.67
2018-12-10T14:25:22.899Z,2.47
2018-12-10T14:27:51.420Z,2.40
2018-12-10T14:30:18.981Z,2.43
2018-12-10T14:32:46.458Z,2.20
2018-12-10T14:35:13.885Z,2.40
2018-12-10T14:37:41.346Z,2.43
2018-12-10T14:40:08.836Z,2.20
2018-12-10T14:42:55.124Z,2.00
2018-12-10T14:45:22.664Z,1.67
2018-12-10T14:47:50.964Z,2.27
2018-12-10T14:50:18.496Z,2.40
2018-12-10T14:52:45.959Z,2.50
2018-12-10T14:55:13.517Z,2.90
2018-12-10T14:57:40.998Z,2.60
2018-12-10T15:00:09.929Z,2.83
2018-12-10T15:02:37.421Z,2.60
2018-12-10T15:05:06.228Z,2.23
2018-12-10T15:07:33.661Z,2.27
2018-12-10T15:10:01.104Z,2.53
2018-12-10T15:12:28.621Z,2.60
2018-12-10T15:14:56.140Z,2.40
2018-12-10T15:17:23.609Z,2.27
2018-12-10T15:19:51.096Z,2.77
2018-12-10T15:22:18.674Z,2.60
2018-12-10T15:24:46.162Z,2.27
2018-12-10T15:27:13.621Z,3.27
2018-12-10T15:29:41.064Z,4.23
2018-12-10T15:32:08.526Z,3.00
2018-12-10T15:34:36.094Z,2.97
2018-12-10T15:37:03.640Z,2.50
2018-12-10T15:39:31.085Z,3.00
2018-12-10T15:41:58.513Z,3.40
2018-12-10T15:44:25.951Z,3.07
2018-12-10T15:46:53.472Z,3.30
2018-12-10T15:49:20.911Z,2.83
2018-12-10T15:51:48.337Z,3.13
2018-12-10T15:54:15.792Z,3.77
2018-12-10T15:56:43.205Z,4.33
2018-12-10T15:59:10.632Z,3.23
2018-12-10T16:01:38.097Z,2.60
2018-12-10T16:04:05.525Z,3.10
2018-12-10T16:06:33.024Z,5.03
2018-12-10T16:09:00.455Z,4.90
2018-12-10T16:11:27.955Z,4.30
2018-12-10T16:13:55.412Z,3.87
2018-12-10T16:16:22.886Z,3.93
2018-12-10T16:18:50.406Z,3.33
2018-12-10T16:21:17.845Z,3.23
2018-12-10T16:23:45.322Z,3.37
2018-12-10T16:26:12.763Z,3.20
2018-12-10T16:28:40.225Z,2.17
2018-12-10T16:31:07.833Z,2.20
2018-12-10T16:33:35.353Z,3.33
2018-12-10T16:36:03.058Z,4.77
2018-12-10T16:38:30.577Z,4.80
2018-12-10T16:40:58.025Z,3.60
2018-12-10T16:43:25.481Z,2.60
2018-12-10T16:45:52.955Z,3.17
2018-12-10T16:48:20.403Z,2.90
2018-12-10T16:50:47.946Z,3.03
2018-12-10T16:53:15.505Z,2.93
2018-12-10T16:55:42.938Z,2.97
2018-12-10T16:58:10.454Z,3.33
2018-12-10T17:00:37.888Z,2.60
2018-12-10T17:03:05.337Z,2.10
2018-12-10T17:05:32.801Z,2.10
2018-12-10T17:08:00.228Z,1.80
2018-12-10T17:10:27.709Z,2.00
2018-12-10T17:12:55.165Z,2.97
2018-12-10T17:15:22.620Z,1.30
2018-12-10T17:17:50.450Z,1.43
2018-12-10T17:20:17.941Z,1.33
2018-12-10T17:22:45.406Z,1.63
2018-12-10T17:25:12.917Z,1.80
2018-12-10T17:27:40.413Z,2.10
2018-12-10T17:30:07.979Z,2.20
2018-12-10T17:32:35.530Z,2.80
2018-12-10T17:35:03.209Z,4.00
2018-12-10T17:37:30.753Z,4.63
2018-12-10T17:39:58.237Z,3.80
2018-12-10T17:42:25.746Z,5.57
2018-12-10T17:44:53.234Z,3.80
2018-12-10T17:47:20.687Z,3.90
2018-12-10T17:49:48.461Z,4.80
2018-12-10T17:52:16.148Z,3.73
2018-12-10T17:54:43.599Z,3.40
2018-12-10T17:57:11.170Z,3.27
2018-12-10T17:59:38.677Z,3.23
2018-12-10T18:02:06.165Z,2.97
2018-12-10T18:04:33.631Z,2.90
2018-12-10T18:07:01.559Z,3.10
2018-12-10T18:09:29.022Z,3.00
2018-12-10T18:11:56.454Z,3.23
2018-12-10T18:14:23.884Z,3.13
2018-12-10T18:16:51.389Z,3.13
2018-12-10T18:19:18.808Z,2.97
2018-12-10T18:21:46.247Z,2.60
2018-12-10T18:24:13.865Z,2.27
2018-12-10T18:26:41.325Z,3.03
2018-12-10T18:29:08.872Z,3.03
2018-12-10T18:31:36.341Z,2.70
2018-12-10T18:34:03.858Z,2.73
2018-12-10T18:36:31.343Z,2.60
2018-12-10T18:38:58.798Z,2.87
2018-12-10T18:41:26.254Z,2.60
2018-12-10T18:43:53.712Z,2.40
2018-12-10T18:46:21.152Z,2.83
2018-12-10T18:48:48.731Z,2.67
2018-12-10T18:51:16.189Z,2.67
2018-12-10T18:53:43.647Z,2.70
2018-12-10T18:56:11.273Z,2.53
2018-12-10T18:58:38.759Z,2.17
2018-12-10T19:01:06.189Z,2.47
2018-12-10T19:03:33.676Z,2.67
2018-12-10T19:06:01.128Z,3.17
2018-12-10T19:08:28.701Z,2.93
2018-12-10T19:10:56.136Z,3.30
2018-12-10T19:13:23.601Z,3.30
2018-12-10T19:15:51.088Z,3.07
2018-12-10T19:18:18.617Z,3.83
2018-12-10T19:20:46.081Z,3.90
2018-12-10T19:23:13.521Z,3.97
2018-12-10T19:25:40.982Z,4.07
2018-12-10T19:28:08.470Z,4.67
2018-12-10T19:30:36.000Z,4.40
2018-12-10T19:33:03.441Z,4.30
2018-12-10T19:35:31.014Z,4.03
2018-12-10T19:37:58.608Z,3.70
2018-12-10T19:40:26.223Z,3.50
2018-12-10T19:42:53.785Z,3.57
2018-12-10T19:45:21.345Z,3.50
2018-12-10T19:47:48.787Z,3.40
2018-12-10T19:50:16.356Z,3.47
2018-12-10T19:52:43.832Z,3.40
2018-12-10T19:55:11.385Z,3.63
2018-12-10T19:57:38.937Z,3.57
2018-12-10T20:00:07.328Z,3.37
2018-12-10T20:02:34.927Z,3.37
2018-12-10T20:05:02.534Z,3.17
2018-12-10T20:07:29.985Z,3.40
2018-12-10T20:09:57.549Z,3.60
2018-12-10T20:12:25.009Z,3.40
2018-12-10T20:14:52.460Z,3.03
2018-12-10T20:17:19.917Z,3.03
2018-12-10T20:19:47.378Z,3.57
2018-12-10T20:22:14.828Z,4.03
2018-12-10T20:24:42.266Z,4.30
2018-12-10T20:27:09.850Z,4.30
2018-12-10T20:29:37.334Z,4.30
2018-12-10T20:32:04.962Z,5.13
2018-12-10T20:34:32.450Z,4.73
2018-12-10T20:36:59.983Z,7.00
2018-12-10T20:39:27.434Z,6.10
2018-12-10T20:41:54.985Z,6.07
2018-12-10T20:44:22.548Z,5.70
2018-12-10T20:46:50.016Z,5.60
2018-12-10T20:49:17.443Z,5.90
2018-12-10T20:51:44.873Z,6.03
2018-12-10T20:54:12.378Z,5.97
2018-12-10T20:56:39.941Z,6.53
2018-12-10T20:59:07.388Z,5.53
2018-12-10T21:01:34.852Z,5.67
2018-12-10T21:04:02.317Z,4.93
2018-12-10T21:06:35.449Z,4.63
2018-12-10T21:09:04.588Z,4.80
2018-12-10T21:11:32.017Z,4.33
2018-12-10T21:13:59.510Z,5.10
2018-12-10T21:16:27.128Z,5.27
2018-12-10T21:18:54.732Z,4.63
2018-12-10T21:21:22.160Z,4.50
2018-12-10T21:23:49.588Z,4.03
2018-12-10T21:26:17.080Z,3.03
2018-12-10T21:28:44.549Z,3.13
2018-12-10T21:31:12.012Z,3.77
2018-12-10T21:33:39.461Z,3.80
2018-12-10T21:36:07.025Z,3.33
2018-12-10T21:38:34.470Z,3.23
2018-12-10T21:41:01.933Z,3.20
2018-12-10T21:43:29.498Z,3.07
2018-12-10T21:45:56.926Z,3.40
2018-12-10T21:48:24.352Z,3.10
2018-12-10T21:50:51.856Z,3.43
2018-12-10T21:53:19.318Z,3.27
2018-12-10T21:55:46.772Z,3.67
2018-12-10T21:58:14.229Z,3.43
2018-12-10T22:00:41.684Z,3.90
2018-12-10T22:03:09.185Z,3.50
2018-12-10T22:05:36.707Z,3.63
2018-12-10T22:08:04.363Z,3.60
2018-12-10T22:10:31.820Z,3.60
2018-12-10T22:12:59.274Z,3.27
2018-12-10T22:15:26.701Z,3.47
2018-12-10T22:17:54.192Z,3.50
2018-12-10T22:20:21.620Z,2.93
2018-12-10T22:22:49.102Z,3.70
2018-12-10T22:25:16.557Z,3.63
2018-12-10T22:27:44.083Z,3.70
2018-12-10T22:30:11.503Z,3.50
2018-12-10T22:32:39.028Z,3.67
2018-12-10T22:35:06.589Z,3.80
2018-12-10T22:37:34.017Z,3.20
2018-12-10T22:40:01.499Z,3.60
2018-12-10T22:42:28.924Z,3.10
2018-12-10T22:44:56.354Z,3.10
2018-12-10T22:47:23.789Z,4.00
2018-12-10T22:49:51.324Z,3.80
2018-12-10T22:52:18.748Z,2.80
2018-12-10T22:54:46.182Z,3.23
2018-12-10T22:57:13.610Z,4.07
2018-12-10T22:59:41.573Z,3.27
2018-12-10T23:02:09.121Z,3.57
2018-12-10T23:04:36.680Z,3.97
2018-12-10T23:07:04.227Z,4.17
2018-12-10T23:09:31.689Z,4.87
2018-12-10T23:11:59.124Z,4.73
2018-12-10T23:14:26.604Z,4.20
2018-12-10T23:16:54.061Z,4.77
2018-12-10T23:19:21.621Z,4.57
2018-12-10T23:21:49.089Z,4.43
2018-12-10T23:24:16.516Z,4.77
2018-12-10T23:26:44.088Z,3.93
2018-12-10T23:29:11.649Z,4.40
2018-12-10T23:31:39.112Z,4.10
2018-12-10T23:34:06.544Z,4.53
2018-12-10T23:36:34.022Z,4.40
2018-12-10T23:39:01.453Z,4.10
2018-12-10T23:41:28.932Z,5.97
2018-12-10T23:43:56.373Z,5.13
2018-12-10T23:46:23.845Z,4.60
2018-12-10T23:48:51.277Z,5.00
2018-12-10T23:51:18.753Z,4.30
2018-12-10T23:53:46.218Z,4.17
2018-12-10T23:56:13.777Z,4.70
2018-12-10T23:58:41.240Z,4.80
